Time;durP1;ratioP1;P1;durP2;ratioP2;P2;SDS_P1;SDS_P2;PMS_P1;PMS_P2;Temp;Humidity;BMP_temperature;BMP_pressure;BME280_temperature;BME280_humidity;BME280_pressure;Samples;Min_cycle;Max_cycle;Signal;HPM_P1;HPM_P2
2022/02/23 00:04:32;;;;;;;0.43;0.25;;;0.10;92.90;;;;;;21040966;28;20043;-59
2022/02/23 00:14:34;;;;;;;0.55;0.20;;;0.00;93.70;;;;;;21057669;28;20105;-59
2022/02/23 00:24:37;;;;;;;0.60;0.30;;;-0.10;93.70;;;;;;21071406;28;20032;-59
2022/02/23 00:34:39;;;;;;;0.70;0.30;;;0.00;93.70;;;;;;21072734;28;20387;-56
2022/02/23 00:44:43;;;;;;;0.52;0.30;;;-0.10;95.00;;;;;;21054437;28;20105;-56
2022/02/23 00:54:45;;;;;;;0.77;0.20;;;-0.10;94.00;;;;;;21069994;28;20110;-58
2022/02/23 01:04:48;;;;;;;1.38;0.40;;;0.10;93.50;;;;;;21069797;28;20591;-58
2022/02/23 01:14:50;;;;;;;1.95;0.38;;;0.10;94.10;;;;;;21068800;28;20056;-59
2022/02/23 01:24:53;;;;;;;0.40;0.20;;;-0.10;95.10;;;;;;21067886;28;20040;-57
2022/02/23 01:34:56;;;;;;;0.40;0.30;;;-0.40;95.00;;;;;;21049789;28;20062;-59
2022/02/23 01:44:59;;;;;;;1.77;0.10;;;-0.60;95.40;;;;;;21050644;28;20417;-57
2022/02/23 01:55:02;;;;;;;1.65;0.13;;;-0.70;95.20;;;;;;21049410;28;20079;-59
2022/02/23 02:05:06;;;;;;;0.00;0.00;;;-0.80;94.80;;;;;;21048485;28;20740;-58
2022/02/23 02:15:09;;;;;;;0.20;0.10;;;-0.80;95.00;;;;;;21064248;28;20036;-59
2022/02/23 02:25:12;;;;;;;0.40;0.10;;;-0.80;94.10;;;;;;21063159;28;20558;-57
2022/02/23 02:35:17;;;;;;;1.88;0.10;;;-0.90;95.10;;;;;;21062477;28;20087;-58
2022/02/23 02:45:23;;;;;;;0.70;0.10;;;-1.10;95.50;;;;;;21061223;28;20039;-58
2022/02/23 02:55:26;;;;;;;0.75;0.20;;;-1.00;96.10;;;;;;21061019;28;20400;-59
2022/02/23 03:05:31;;;;;;;1.00;0.28;;;-1.10;96.30;;;;;;21059997;28;20028;-58
2022/02/23 03:15:33;;;;;;;0.73;0.20;;;-1.10;97.10;;;;;;21059525;28;20372;-58
2022/02/23 03:25:36;;;;;;;0.30;0.10;;;-1.10;96.20;;;;;;21060688;28;20054;-58
2022/02/23 03:35:41;;;;;;;0.85;0.20;;;-0.90;96.60;;;;;;21058879;28;20442;-58
2022/02/23 03:45:45;;;;;;;0.15;0.10;;;-0.80;96.10;;;;;;21058933;28;20031;-58
2022/02/23 03:55:48;;;;;;;0.68;0.10;;;-0.70;95.40;;;;;;21066399;28;20044;-59
2022/02/23 04:05:50;;;;;;;0.10;0.10;;;-0.60;95.60;;;;;;21074266;28;20495;-57
2022/02/23 04:15:53;;;;;;;0.98;0.10;;;-0.70;96.00;;;;;;21075040;28;20109;-58
2022/02/23 04:25:56;;;;;;;0.57;0.13;;;-0.70;95.90;;;;;;20947608;28;20073;-58
2022/02/23 04:35:59;;;;;;;0.30;0.20;;;-0.70;96.10;;;;;;20927201;28;20064;-57
2022/02/23 04:46:06;;;;;;;1.17;0.28;;;-0.70;95.60;;;;;;20911887;28;20052;-59
2022/02/23 04:56:09;;;;;;;0.82;0.30;;;-0.70;95.80;;;;;;20942898;28;20236;-57
2022/02/23 05:06:11;;;;;;;0.22;0.22;;;-0.70;95.90;;;;;;20974095;28;20048;-59
2022/02/23 05:16:13;;;;;;;1.08;0.47;;;-0.50;95.20;;;;;;21068846;28;20040;-58
2022/02/23 05:26:16;;;;;;;0.60;0.40;;;-0.30;96.10;;;;;;21068408;28;20541;-59
2022/02/23 05:36:18;;;;;;;1.25;0.47;;;-0.60;96.30;;;;;;21066958;28;20609;-58
2022/02/23 05:46:21;;;;;;;0.68;0.40;;;-0.70;96.50;;;;;;21065399;28;20085;-58
2022/02/23 05:56:25;;;;;;;0.65;0.40;;;-0.60;96.20;;;;;;21065452;28;20039;-56
2022/02/23 06:06:27;;;;;;;0.52;0.32;;;-0.50;97.00;;;;;;21064779;28;20109;-59
2022/02/23 06:16:30;;;;;;;1.85;0.25;;;-0.70;97.80;;;;;;21063446;28;20101;-59
2022/02/23 06:26:32;;;;;;;0.93;0.50;;;-0.60;97.40;;;;;;21062564;28;20040;-59
2022/02/23 06:36:34;;;;;;;0.63;0.30;;;-0.40;97.90;;;;;;21061415;28;20027;-59
2022/02/23 06:46:38;;;;;;;0.70;0.30;;;-0.30;97.00;;;;;;21061936;28;20062;-58
2022/02/23 06:56:40;;;;;;;1.02;0.35;;;0.10;96.90;;;;;;21044251;28;20106;-58
2022/02/23 07:06:44;;;;;;;0.63;0.25;;;0.40;95.90;;;;;;21060380;28;20028;-59
2022/02/23 07:16:46;;;;;;;0.80;0.40;;;0.60;95.80;;;;;;21059839;28;20572;-60
2022/02/23 07:26:49;;;;;;;0.50;0.30;;;0.70;95.60;;;;;;21059431;28;20036;-58
2022/02/23 07:36:51;;;;;;;0.40;0.35;;;1.30;95.10;;;;;;21058655;28;20752;-57
2022/02/23 07:46:55;;;;;;;0.52;0.30;;;2.40;93.60;;;;;;21057933;28;20032;-55
2022/02/23 07:56:58;;;;;;;0.20;0.10;;;3.70;92.60;;;;;;21057819;28;20048;-55
2022/02/23 08:07:01;;;;;;;0.17;0.13;;;4.90;81.90;;;;;;21040522;28;20067;-57
2022/02/23 08:27:28;;;;;;;0.63;0.20;;;7.10;75.20;;;;;;21056636;28;20060;-57
2022/02/23 08:37:31;;;;;;;0.32;0.17;;;7.40;75.80;;;;;;21058703;28;20040;-59
2022/02/23 08:47:34;;;;;;;0.08;0.00;;;8.00;75.10;;;;;;21054559;28;20097;-58
2022/02/23 08:57:37;;;;;;;0.28;0.00;;;8.60;75.00;;;;;;21070420;28;20044;-57
2022/02/23 09:07:39;;;;;;;0.00;0.00;;;8.80;74.90;;;;;;21069514;28;20032;-59
2022/02/23 09:17:42;;;;;;;0.08;0.00;;;8.90;74.10;;;;;;21068528;28;20040;-58
2022/02/23 09:27:45;;;;;;;0.00;0.00;;;9.40;74.50;;;;;;21068413;28;20040;-59
2022/02/23 09:37:48;;;;;;;0.08;0.00;;;9.80;70.70;;;;;;21067117;28;20491;-59
2022/02/23 09:47:51;;;;;;;0.20;0.00;;;9.90;73.30;;;;;;21067566;28;20491;-57
2022/02/23 09:57:54;;;;;;;0.08;0.00;;;9.90;70.00;;;;;;21064312;28;20044;-58
2022/02/23 10:08:05;;;;;;;0.28;0.00;;;10.00;70.10;;;;;;21064080;28;20109;-59
2022/02/23 10:18:10;;;;;;;;;;;10.20;69.40;;;;;;21063936;28;20426;-57
2022/02/23 10:28:20;;;;;;;0.15;0.00;;;10.10;67.50;;;;;;21064063;28;19942;-59
2022/02/23 10:38:28;;;;;;;0.00;0.00;;;10.20;65.90;;;;;;21045456;28;20093;-60
2022/02/23 10:48:40;;;;;;;0.10;0.00;;;10.30;66.90;;;;;;21062473;28;20032;-58
2022/02/23 10:58:43;;;;;;;0.00;0.00;;;10.50;65.70;;;;;;21061027;28;20097;-60
2022/02/23 11:08:49;;;;;;;0.00;0.00;;;10.30;66.10;;;;;;21060349;28;20028;-59
2022/02/23 11:18:59;;;;;;;0.70;0.00;;;10.40;66.00;;;;;;21059378;28;20077;-60
2022/02/23 11:29:21;;;;;;;0.47;0.00;;;10.50;64.40;;;;;;21058927;28;20097;-60
2022/02/23 11:39:33;;;;;;;0.00;0.00;;;10.50;62.70;;;;;;21058305;28;20036;-59
2022/02/23 11:49:37;;;;;;;0.10;0.00;;;10.70;63.00;;;;;;21057668;28;20044;-58
2022/02/23 11:59:49;;;;;;;0.00;0.00;;;10.60;63.30;;;;;;21057977;28;20062;-60
2022/02/23 12:09:56;;;;;;;0.00;0.00;;;11.00;61.60;;;;;;21041060;28;20101;-57
2022/02/23 12:19:59;;;;;;;0.00;0.00;;;11.30;62.50;;;;;;21070891;28;20093;-57
2022/02/23 12:30:02;;;;;;;0.00;0.00;;;11.40;63.50;;;;;;21073764;28;20044;-59
2022/02/23 12:40:06;;;;;;;0.10;0.10;;;11.30;62.20;;;;;;21072004;28;20494;-59
2022/02/23 12:50:09;;;;;;;0.52;0.10;;;11.90;70.00;;;;;;21062481;28;20040;-60
2022/02/23 13:00:13;;;;;;;0.43;0.10;;;12.90;65.80;;;;;;21071685;28;20047;-60
2022/02/23 13:10:15;;;;;;;0.10;0.00;;;13.30;63.80;;;;;;21053051;28;20109;-60
2022/02/23 13:20:23;;;;;;;0.15;0.13;;;13.20;63.50;;;;;;21068616;28;20062;-60
2022/02/23 13:30:25;;;;;;;0.25;0.20;;;12.90;64.70;;;;;;21049886;28;20471;-60
2022/02/23 13:40:28;;;;;;;0.20;0.10;;;13.00;66.80;;;;;;21067557;28;20097;-60
2022/02/23 13:50:33;;;;;;;2.20;0.85;;;13.10;65.70;;;;;;21066548;28;20036;-60
2022/02/23 14:00:40;;;;;;;6.75;1.00;;;12.80;68.30;;;;;;21067033;28;20483;-60
2022/02/23 14:10:44;;;;;;;1.42;0.80;;;11.90;66.90;;;;;;21065060;28;20036;-59
2022/02/23 14:20:49;;;;;;;2.20;1.30;;;10.90;69.50;;;;;;21064110;28;20036;-59
2022/02/23 14:30:51;;;;;;;3.30;1.63;;;10.40;72.80;;;;;;21063551;28;20403;-58
2022/02/23 14:40:54;;;;;;;3.80;1.52;;;10.20;75.50;;;;;;21062096;28;20036;-59
2022/02/23 14:50:56;;;;;;;3.25;2.03;;;9.90;76.60;;;;;;21062326;28;20101;-58
2022/02/23 15:00:59;;;;;;;2.25;1.25;;;9.60;72.40;;;;;;21060785;28;20592;-59
2022/02/23 15:11:02;;;;;;;1.85;1.13;;;9.20;72.40;;;;;;21061488;28;20312;-57
2022/02/23 15:21:05;;;;;;;3.20;1.25;;;9.00;73.40;;;;;;21043163;28;20101;-59
2022/02/23 15:31:13;;;;;;;1.40;1.00;;;8.90;72.60;;;;;;21059847;28;20361;-58
2022/02/23 15:41:15;;;;;;;1.77;0.88;;;8.80;76.40;;;;;;21041283;28;20040;-59
2022/02/23 15:51:18;;;;;;;2.25;1.02;;;8.20;78.10;;;;;;21057209;28;20367;-57
2022/02/23 16:01:26;;;;;;;2.53;0.70;;;7.40;81.10;;;;;;21058975;28;20479;-54
2022/02/23 16:11:30;;;;;;;3.42;0.70;;;6.80;82.60;;;;;;21057284;28;20090;-59
2022/02/23 16:21:33;;;;;;;0.85;0.50;;;6.20;83.90;;;;;;21057547;28;20044;-57
2022/02/23 16:31:36;;;;;;;1.40;0.50;;;5.50;90.50;;;;;;21056902;28;20540;-57
2022/02/23 16:41:39;;;;;;;1.30;0.68;;;4.90;91.50;;;;;;21057616;28;20085;-58
2022/02/23 16:51:41;;;;;;;0.22;0.20;;;4.50;92.20;;;;;;21055945;28;20048;-58
2022/02/23 17:01:45;;;;;;;0.10;0.00;;;4.20;89.20;;;;;;21061252;28;20405;-59
2022/02/23 17:11:47;;;;;;;0.50;0.10;;;3.90;83.40;;;;;;21069652;28;20372;-58
2022/02/23 17:21:52;;;;;;;10.35;3.15;;;3.80;90.20;;;;;;21068568;28;20035;-58
2022/02/23 17:31:55;;;;;;;8.40;4.22;;;3.40;90.70;;;;;;21067816;28;20032;-58
2022/02/23 17:41:58;;;;;;;3.22;1.58;;;3.20;91.20;;;;;;21067190;28;20109;-57
2022/02/23 17:52:00;;;;;;;3.72;1.42;;;3.00;92.60;;;;;;21066291;28;20429;-56
2022/02/23 18:02:04;;;;;;;0.68;0.50;;;2.90;93.60;;;;;;21067960;28;20062;-57
2022/02/23 18:12:09;;;;;;;1.65;0.50;;;2.80;93.40;;;;;;21047040;28;20040;-57
2022/02/23 18:22:12;;;;;;;1.00;0.40;;;2.70;93.20;;;;;;21053569;28;20040;-57
2022/02/23 18:32:16;;;;;;;0.88;0.40;;;2.60;93.00;;;;;;21041940;28;20377;-59
2022/02/23 18:42:18;;;;;;;2.17;0.63;;;2.60;92.80;;;;;;21062011;28;20081;-57
2022/02/23 18:52:21;;;;;;;4.85;0.40;;;2.30;93.70;;;;;;21062004;28;20040;-58
2022/02/23 19:02:23;;;;;;;0.43;0.20;;;2.30;93.10;;;;;;21044005;28;20120;-57
2022/02/23 19:12:26;;;;;;;0.82;0.03;;;2.20;93.50;;;;;;21059818;28;20085;-59
2022/02/23 19:22:29;;;;;;;0.00;0.00;;;2.10;92.20;;;;;;21058610;28;20089;-56
2022/02/23 19:32:31;;;;;;;0.00;0.00;;;2.30;91.80;;;;;;21060928;28;20044;-58
2022/02/23 19:42:35;;;;;;;0.00;0.00;;;2.40;91.50;;;;;;21045990;28;20040;-56
2022/02/23 19:52:38;;;;;;;0.00;0.00;;;2.50;91.60;;;;;;21041132;28;20044;-55
2022/02/23 20:02:51;;;;;;;0.00;0.00;;;2.50;90.80;;;;;;21057838;28;20391;-58
2022/02/23 20:12:57;;;;;;;0.00;0.00;;;2.60;91.70;;;;;;21058223;28;20077;-57
2022/02/23 20:23:01;;;;;;;0.00;0.00;;;2.50;89.70;;;;;;21056485;28;20040;-59
2022/02/23 20:33:05;;;;;;;0.90;0.00;;;2.80;90.00;;;;;;20913331;28;20041;-58
2022/02/23 20:43:07;;;;;;;0.00;0.00;;;3.00;88.60;;;;;;20928205;28;20098;-58
2022/02/23 20:53:10;;;;;;;0.15;0.00;;;3.00;89.20;;;;;;20919233;28;20106;-56
2022/02/23 21:03:13;;;;;;;0.13;0.00;;;3.10;86.10;;;;;;20907760;28;20077;-56
2022/02/23 21:13:16;;;;;;;0.40;0.00;;;3.20;85.60;;;;;;21069272;28;20092;-58
2022/02/23 21:23:19;;;;;;;0.00;0.00;;;3.00;89.60;;;;;;21066311;28;20036;-59
2022/02/23 21:33:22;;;;;;;0.10;0.00;;;2.60;90.30;;;;;;21058447;28;20032;-58
2022/02/23 21:43:25;;;;;;;0.00;0.00;;;2.50;89.00;;;;;;21067224;28;20100;-57
2022/02/23 21:53:27;;;;;;;0.00;0.00;;;2.50;90.20;;;;;;21065236;28;20495;-59
2022/02/23 22:03:30;;;;;;;0.10;0.00;;;2.50;90.50;;;;;;21066103;28;20032;-58
2022/02/23 22:13:32;;;;;;;0.00;0.00;;;2.30;89.50;;;;;;21064470;28;20040;-59
2022/02/23 22:23:45;;;;;;;0.00;0.00;;;2.20;90.60;;;;;;21063872;28;20105;-57
2022/02/23 22:33:48;;;;;;;0.00;0.00;;;2.20;89.90;;;;;;21064126;28;20032;-58
2022/02/23 22:43:52;;;;;;;0.00;0.00;;;1.90;90.80;;;;;;21062174;28;20089;-57
2022/02/23 22:53:54;;;;;;;0.55;0.00;;;1.60;91.30;;;;;;21061663;28;20093;-59
2022/02/23 23:03:57;;;;;;;1.13;0.00;;;1.30;91.70;;;;;;21044037;28;20454;-59
2022/02/23 23:14:01;;;;;;;0.00;0.00;;;1.20;92.40;;;;;;21043116;28;20451;-58
2022/02/23 23:24:05;;;;;;;0.22;0.00;;;1.20;92.70;;;;;;21045075;28;20036;-59
2022/02/23 23:34:08;;;;;;;0.10;0.00;;;1.10;92.20;;;;;;21059031;28;20039;-59
2022/02/23 23:44:11;;;;;;;0.00;0.00;;;1.10;93.00;;;;;;21058553;28;20058;-58
2022/02/23 23:54:14;;;;;;;0.00;0.00;;;1.10;93.30;;;;;;21057662;28;20116;-57
